createdAt,value
2018-09-21T00:01:54.591Z,18.30
2018-09-21T00:04:29.266Z,18.40
2018-09-21T00:07:03.847Z,18.40
2018-09-21T00:09:38.510Z,18.30
2018-09-21T00:12:13.138Z,18.40
2018-09-21T00:14:47.638Z,18.30
2018-09-21T00:17:22.075Z,18.20
2018-09-21T00:19:56.690Z,18.10
2018-09-21T00:22:31.269Z,18.10
2018-09-21T00:25:06.212Z,18.20
2018-09-21T00:27:40.768Z,18.00
2018-09-21T00:30:15.536Z,17.90
2018-09-21T00:32:50.064Z,17.90
2018-09-21T00:35:24.547Z,17.80
2018-09-21T00:37:59.194Z,17.80
2018-09-21T00:40:33.941Z,17.90
2018-09-21T00:43:08.779Z,17.80
2018-09-21T00:45:43.594Z,17.90
2018-09-21T00:48:18.170Z,17.90
2018-09-21T00:50:52.703Z,17.90
2018-09-21T00:53:27.339Z,17.90
2018-09-21T00:56:01.893Z,17.80
2018-09-21T00:58:36.542Z,17.80
2018-09-21T01:01:11.094Z,17.80
2018-09-21T01:03:45.614Z,17.90
2018-09-21T01:06:20.167Z,17.90
2018-09-21T01:08:54.655Z,17.90
2018-09-21T01:11:29.328Z,17.90
2018-09-21T01:14:03.939Z,17.90
2018-09-21T01:16:38.581Z,18.00
2018-09-21T01:19:13.280Z,17.90
2018-09-21T01:21:47.888Z,17.90
2018-09-21T01:24:22.566Z,17.70
2018-09-21T01:26:57.103Z,17.70
2018-09-21T01:29:31.590Z,17.70
2018-09-21T01:32:06.228Z,17.50
2018-09-21T01:34:40.722Z,17.70
2018-09-21T01:37:15.391Z,17.80
2018-09-21T01:39:49.992Z,17.70
2018-09-21T01:42:24.632Z,17.80
2018-09-21T01:44:59.262Z,17.90
2018-09-21T01:47:33.982Z,17.90
2018-09-21T01:50:08.636Z,18.10
2018-09-21T01:52:43.140Z,18.10
2018-09-21T01:55:17.759Z,18.10
2018-09-21T01:57:52.514Z,18.10
2018-09-21T02:00:27.238Z,18.00
2018-09-21T02:03:01.907Z,17.80
2018-09-21T02:05:36.453Z,17.70
2018-09-21T02:08:11.099Z,17.70
2018-09-21T02:10:46.283Z,17.50
2018-09-21T02:13:21.693Z,17.50
2018-09-21T02:15:56.475Z,17.60
2018-09-21T02:18:30.978Z,17.70
2018-09-21T02:21:05.651Z,17.60
2018-09-21T02:23:40.215Z,17.70
2018-09-21T02:26:14.915Z,17.60
2018-09-21T02:28:49.454Z,17.60
2018-09-21T02:31:24.001Z,17.80
2018-09-21T02:33:58.526Z,17.80
2018-09-21T02:36:33.175Z,17.80
2018-09-21T02:39:08.830Z,17.80
2018-09-21T02:41:43.429Z,17.60
2018-09-21T02:44:18.007Z,17.60
2018-09-21T02:46:52.686Z,17.70
2018-09-21T02:49:27.215Z,17.90
2018-09-21T02:52:01.935Z,17.90
2018-09-21T02:54:36.553Z,18.10
2018-09-21T02:57:11.213Z,18.10
2018-09-21T02:59:45.828Z,18.00
2018-09-21T03:02:20.554Z,17.90
2018-09-21T03:04:56.119Z,17.90
2018-09-21T03:07:30.822Z,18.00
2018-09-21T03:10:05.372Z,18.10
2018-09-21T03:12:39.970Z,18.10
2018-09-21T03:15:14.660Z,18.10
2018-09-21T03:17:49.130Z,18.10
2018-09-21T03:20:23.843Z,18.20
2018-09-21T03:22:58.555Z,18.20
2018-09-21T03:25:33.108Z,18.20
2018-09-21T03:28:07.574Z,18.20
2018-09-21T03:30:42.339Z,18.10
2018-09-21T03:33:16.773Z,18.10
2018-09-21T03:35:51.507Z,18.00
2018-09-21T03:38:26.182Z,18.00
2018-09-21T03:41:00.938Z,18.10
2018-09-21T03:43:35.435Z,17.90
2018-09-21T03:46:09.975Z,17.80
2018-09-21T03:48:44.519Z,17.80
2018-09-21T03:51:19.307Z,17.90
2018-09-21T03:53:53.830Z,17.80
2018-09-21T03:56:28.533Z,17.90
2018-09-21T03:59:03.179Z,17.60
2018-09-21T04:01:37.979Z,17.60
2018-09-21T04:04:12.525Z,17.50
2018-09-21T04:06:41.611Z,17.60
2018-09-21T04:09:11.496Z,17.40
2018-09-21T04:11:40.627Z,17.30
2018-09-21T04:14:09.687Z,17.40
2018-09-21T04:16:38.708Z,17.40
2018-09-21T04:19:07.720Z,17.50
2018-09-21T04:21:36.784Z,17.60
2018-09-21T04:24:05.825Z,17.50
2018-09-21T04:26:34.882Z,17.50
2018-09-21T04:29:03.927Z,17.50
2018-09-21T04:31:32.962Z,17.40
2018-09-21T04:34:01.967Z,17.40
2018-09-21T04:36:31.008Z,17.30
2018-09-21T04:39:00.008Z,17.20
2018-09-21T04:41:29.075Z,17.30
2018-09-21T04:43:58.084Z,17.40
2018-09-21T04:46:27.176Z,17.40
2018-09-21T04:48:56.182Z,17.50
2018-09-21T04:51:25.713Z,17.50
2018-09-21T04:53:54.750Z,17.40
2018-09-21T04:56:23.806Z,17.50
2018-09-21T04:58:52.815Z,17.40
2018-09-21T05:01:21.890Z,17.30
2018-09-21T05:03:50.903Z,17.20
2018-09-21T05:06:20.052Z,17.30
2018-09-21T05:08:49.062Z,17.20
2018-09-21T05:11:18.128Z,17.20
2018-09-21T05:13:47.437Z,17.20
2018-09-21T05:16:16.379Z,17.30
2018-09-21T05:18:45.382Z,17.50
2018-09-21T05:21:14.491Z,17.60
2018-09-21T05:23:43.524Z,17.70
2018-09-21T05:26:12.562Z,17.80
2018-09-21T05:28:41.579Z,17.70
2018-09-21T05:31:10.614Z,17.80
2018-09-21T05:33:39.671Z,17.80
2018-09-21T05:36:08.745Z,17.90
2018-09-21T05:38:37.780Z,17.90
2018-09-21T05:41:06.926Z,17.90
2018-09-21T05:43:36.113Z,17.90
2018-09-21T05:46:05.264Z,18.10
2018-09-21T05:48:34.288Z,18.20
2018-09-21T05:51:03.415Z,18.30
2018-09-21T05:53:32.443Z,18.40
2018-09-21T05:56:01.505Z,18.50
2018-09-21T05:58:30.557Z,18.60
2018-09-21T06:00:59.884Z,18.50
2018-09-21T06:03:28.987Z,18.60
2018-09-21T06:05:58.048Z,18.60
2018-09-21T06:08:27.195Z,18.60
2018-09-21T06:10:56.249Z,18.40
2018-09-21T06:13:25.278Z,18.40
2018-09-21T06:15:54.315Z,18.60
2018-09-21T06:18:23.354Z,18.70
2018-09-21T06:20:52.467Z,18.70
2018-09-21T06:23:21.468Z,18.80
2018-09-21T06:25:50.546Z,19.10
2018-09-21T06:28:19.559Z,18.90
2018-09-21T06:30:48.654Z,18.90
2018-09-21T06:33:17.666Z,18.90
2018-09-21T06:35:46.955Z,19.20
2018-09-21T06:38:15.980Z,19.50
2018-09-21T06:40:45.051Z,20.00
2018-09-21T06:43:14.088Z,20.00
2018-09-21T06:45:43.158Z,20.20
2018-09-21T06:48:12.219Z,20.70
2018-09-21T06:50:41.244Z,20.80
2018-09-21T06:53:10.314Z,21.20
2018-09-21T06:55:39.387Z,21.70
2018-09-21T06:58:08.539Z,22.10
2018-09-21T07:00:38.212Z,22.60
2018-09-21T07:03:07.248Z,23.40
2018-09-21T07:05:36.369Z,23.80
2018-09-21T07:08:05.447Z,24.30
2018-09-21T07:10:34.516Z,24.50
2018-09-21T07:13:03.604Z,24.80
2018-09-21T07:15:33.387Z,24.80
2018-09-21T07:18:03.160Z,24.90
2018-09-21T07:20:32.163Z,25.00
2018-09-21T07:23:01.212Z,25.10
2018-09-21T07:25:30.232Z,25.10
2018-09-21T07:27:59.269Z,25.00
2018-09-21T07:30:28.332Z,25.10
2018-09-21T07:32:57.403Z,25.00
2018-09-21T07:35:26.410Z,25.10
2018-09-21T07:37:55.684Z,25.10
2018-09-21T07:40:24.803Z,25.20
2018-09-21T07:42:53.944Z,25.30
2018-09-21T07:45:22.930Z,25.30
2018-09-21T07:47:52.044Z,25.20
2018-09-21T07:50:22.297Z,25.20
2018-09-21T07:52:51.355Z,25.20
2018-09-21T07:55:20.429Z,25.20
2018-09-21T07:57:49.435Z,25.30
2018-09-21T08:00:18.655Z,25.50
2018-09-21T08:02:47.671Z,25.40
2018-09-21T08:05:20.317Z,25.40
2018-09-21T08:07:49.367Z,25.40
2018-09-21T08:10:18.437Z,25.30
2018-09-21T08:12:47.499Z,25.40
2018-09-21T08:15:16.534Z,25.40
2018-09-21T08:17:45.560Z,25.60
2018-09-21T08:20:14.608Z,26.70
2018-09-21T08:22:44.600Z,28.30
2018-09-21T08:25:13.856Z,28.20
2018-09-21T08:27:42.849Z,27.30
2018-09-21T08:30:11.897Z,26.90
2018-09-21T08:32:40.979Z,26.90
2018-09-21T08:35:10.139Z,27.10
2018-09-21T08:37:39.172Z,27.30
2018-09-21T08:40:08.719Z,27.10
2018-09-21T08:42:37.763Z,26.80
2018-09-21T08:45:07.652Z,26.30
2018-09-21T08:47:36.671Z,26.80
2018-09-21T08:50:07.059Z,26.60
2018-09-21T08:52:37.680Z,27.70
2018-09-21T08:55:07.016Z,30.10
2018-09-21T08:57:36.035Z,30.80
2018-09-21T09:00:05.220Z,31.30
2018-09-21T09:02:34.275Z,29.40
2018-09-21T09:05:03.356Z,28.70
2018-09-21T09:07:32.394Z,29.20
2018-09-21T09:10:01.436Z,28.30
2018-09-21T09:12:30.428Z,29.20
2018-09-21T09:14:59.487Z,29.60
2018-09-21T09:17:28.490Z,29.00
2018-09-21T09:19:57.553Z,28.90
2018-09-21T09:22:26.722Z,29.60
2018-09-21T09:24:56.191Z,30.70
2018-09-21T09:27:25.182Z,30.60
2018-09-21T09:29:54.248Z,31.50
2018-09-21T09:32:23.259Z,29.50
2018-09-21T09:34:52.400Z,29.70
2018-09-21T09:37:21.435Z,29.60
2018-09-21T09:39:50.583Z,29.20
2018-09-21T09:42:19.603Z,28.70
2018-09-21T09:44:48.787Z,28.50
2018-09-21T09:47:17.857Z,28.10
2018-09-21T09:49:46.904Z,28.10
2018-09-21T09:52:15.971Z,27.70
2018-09-21T09:54:45.248Z,27.30
2018-09-21T09:57:14.351Z,27.30
2018-09-21T09:59:43.390Z,26.70
2018-09-21T10:02:12.394Z,26.60
2018-09-21T10:04:41.561Z,26.60
2018-09-21T10:07:10.623Z,26.70
2018-09-21T10:09:39.666Z,26.40
2018-09-21T10:12:08.749Z,26.40
2018-09-21T10:14:37.818Z,26.80
2018-09-21T10:17:06.844Z,26.70
2018-09-21T10:19:37.008Z,27.40
2018-09-21T10:22:06.088Z,27.80
2018-09-21T10:24:35.286Z,28.00
2018-09-21T10:27:04.552Z,27.90
2018-09-21T10:29:33.478Z,28.10
2018-09-21T10:32:02.542Z,28.00
2018-09-21T10:34:31.613Z,28.40
2018-09-21T10:37:00.662Z,27.90
2018-09-21T10:39:29.743Z,27.90
2018-09-21T10:41:58.888Z,27.40
2018-09-21T10:44:27.913Z,27.00
2018-09-21T10:46:57.038Z,27.50
2018-09-21T10:49:26.096Z,26.90
2018-09-21T10:51:55.129Z,26.40
2018-09-21T10:54:24.183Z,26.40
2018-09-21T10:56:53.243Z,26.30
2018-09-21T10:59:22.264Z,26.30
2018-09-21T11:01:51.348Z,26.40
2018-09-21T11:04:20.464Z,26.40
2018-09-21T11:06:49.518Z,26.40
2018-09-21T11:09:18.537Z,26.20
2018-09-21T11:11:47.635Z,26.20
2018-09-21T11:14:16.646Z,26.20
2018-09-21T11:16:45.729Z,26.10
2018-09-21T11:19:14.838Z,25.90
2018-09-21T11:21:43.927Z,26.00
2018-09-21T11:24:13.004Z,25.90
2018-09-21T11:26:42.096Z,25.60
2018-09-21T11:29:11.127Z,25.70
2018-09-21T11:31:40.262Z,25.60
2018-09-21T11:34:09.372Z,25.60
2018-09-21T11:36:38.416Z,25.60
2018-09-21T11:39:09.406Z,25.60
2018-09-21T11:41:38.484Z,25.50
2018-09-21T11:44:07.706Z,25.50
2018-09-21T11:46:36.813Z,25.70
2018-09-21T11:49:05.899Z,25.80
2018-09-21T11:51:34.981Z,25.50
2018-09-21T11:54:04.118Z,25.70
2018-09-21T11:56:33.179Z,25.40
2018-09-21T11:59:02.242Z,25.60
2018-09-21T12:01:31.386Z,25.70
2018-09-21T12:04:00.432Z,25.50
2018-09-21T12:06:29.611Z,25.50
2018-09-21T12:08:58.667Z,25.60
2018-09-21T12:11:27.737Z,25.40
2018-09-21T12:13:56.772Z,25.20
2018-09-21T12:16:26.172Z,24.80
2018-09-21T12:18:55.356Z,24.60
2018-09-21T12:21:24.394Z,24.70
2018-09-21T12:23:53.479Z,24.80
2018-09-21T12:26:22.699Z,24.60
2018-09-21T12:28:51.778Z,24.50
2018-09-21T12:31:21.296Z,24.50
2018-09-21T12:33:50.364Z,24.60
2018-09-21T12:36:19.449Z,24.60
2018-09-21T12:38:48.458Z,24.50
2018-09-21T12:41:17.498Z,24.40
2018-09-21T12:43:46.688Z,24.50
2018-09-21T12:46:24.204Z,24.60
2018-09-21T12:48:55.854Z,24.70
2018-09-21T12:51:24.962Z,24.60
2018-09-21T12:53:54.203Z,24.70
2018-09-21T12:56:23.532Z,24.90
2018-09-21T12:58:52.736Z,24.90
2018-09-21T13:01:21.663Z,25.10
2018-09-21T13:03:50.702Z,25.40
2018-09-21T13:06:19.762Z,25.40
2018-09-21T13:08:48.871Z,25.70
2018-09-21T13:11:17.878Z,25.90
2018-09-21T13:13:47.028Z,25.90
2018-09-21T13:16:16.076Z,25.30
2018-09-21T13:18:45.151Z,25.20
2018-09-21T13:21:14.498Z,25.10
2018-09-21T13:23:43.567Z,24.90
2018-09-21T13:26:12.711Z,25.00
2018-09-21T13:28:41.795Z,24.90
2018-09-21T13:31:11.024Z,24.80
2018-09-21T13:33:40.086Z,24.70
2018-09-21T13:36:09.193Z,24.60
2018-09-21T13:38:40.514Z,24.70
2018-09-21T13:41:11.000Z,24.70
2018-09-21T13:43:40.048Z,24.60
2018-09-21T13:46:09.162Z,24.50
2018-09-21T13:48:38.271Z,24.60
2018-09-21T13:51:07.319Z,24.60
2018-09-21T13:53:36.383Z,24.50
2018-09-21T13:56:06.111Z,24.50
2018-09-21T13:58:35.159Z,24.30
2018-09-21T14:01:05.025Z,24.10
2018-09-21T14:03:34.117Z,24.10
2018-09-21T14:06:04.993Z,24.20
2018-09-21T14:08:34.936Z,24.20
2018-09-21T14:11:04.423Z,24.00
2018-09-21T14:13:33.457Z,24.20
2018-09-21T14:16:02.491Z,24.30
2018-09-21T14:18:31.552Z,24.20
2018-09-21T14:21:00.583Z,24.30
2018-09-21T14:23:29.656Z,24.20
2018-09-21T14:25:58.678Z,24.20
2018-09-21T14:28:29.214Z,24.20
2018-09-21T14:30:58.444Z,24.30
2018-09-21T14:33:28.161Z,24.20
2018-09-21T14:35:57.284Z,24.10
2018-09-21T14:38:27.252Z,24.00
2018-09-21T14:40:57.864Z,23.90
2018-09-21T14:43:26.919Z,23.90
2018-09-21T14:45:56.074Z,23.90
2018-09-21T14:48:25.091Z,23.80
2018-09-21T14:50:54.755Z,23.80
2018-09-21T14:53:23.771Z,23.80
2018-09-21T14:55:52.844Z,23.70
2018-09-21T14:58:21.899Z,23.80
2018-09-21T15:00:50.987Z,23.70
2018-09-21T15:03:19.996Z,23.70
2018-09-21T15:05:49.188Z,23.60
2018-09-21T15:08:18.884Z,23.60
2018-09-21T15:10:48.101Z,23.60
2018-09-21T15:13:17.153Z,23.60
2018-09-21T15:15:46.335Z,23.50
2018-09-21T15:18:15.373Z,23.50
2018-09-21T15:20:44.423Z,23.40
2018-09-21T15:23:13.449Z,23.40
2018-09-21T15:25:42.526Z,23.30
2018-09-21T15:28:11.650Z,23.30
2018-09-21T15:30:40.687Z,23.30
2018-09-21T15:33:09.708Z,23.20
2018-09-21T15:35:38.792Z,23.20
2018-09-21T15:38:07.943Z,23.10
2018-09-21T15:40:37.017Z,23.10
2018-09-21T15:43:06.122Z,23.10
2018-09-21T15:45:35.320Z,23.10
2018-09-21T15:48:04.426Z,22.00
2018-09-21T15:50:33.487Z,21.30
2018-09-21T15:53:02.527Z,20.70
2018-09-21T15:55:31.615Z,20.20
2018-09-21T15:58:00.634Z,19.70
2018-09-21T16:00:29.699Z,19.60
2018-09-21T16:02:58.734Z,19.10
2018-09-21T16:05:27.763Z,18.80
2018-09-21T16:07:56.797Z,18.00
2018-09-21T16:10:25.927Z,17.10
2018-09-21T16:12:54.919Z,16.60
2018-09-21T16:15:23.991Z,16.20
2018-09-21T16:17:53.062Z,15.70
2018-09-21T16:20:22.123Z,15.60
2018-09-21T16:22:51.141Z,15.50
2018-09-21T16:25:20.186Z,15.30
2018-09-21T16:27:49.356Z,15.20
2018-09-21T16:30:18.499Z,15.20
2018-09-21T16:32:47.604Z,15.10
2018-09-21T16:35:16.623Z,14.90
2018-09-21T16:37:45.723Z,14.90
2018-09-21T16:40:14.766Z,14.80
2018-09-21T16:42:43.843Z,14.60
2018-09-21T16:45:12.855Z,14.40
2018-09-21T16:47:42.002Z,14.40
2018-09-21T16:50:11.035Z,14.20
2018-09-21T16:52:40.119Z,14.10
2018-09-21T16:55:09.194Z,13.90
2018-09-21T16:57:38.341Z,13.80
2018-09-21T17:00:08.059Z,13.70
2018-09-21T17:02:37.251Z,13.70
2018-09-21T17:05:06.388Z,13.80
2018-09-21T17:07:35.499Z,13.80
2018-09-21T17:10:04.547Z,13.80
2018-09-21T17:12:33.623Z,13.70
2018-09-21T17:15:02.659Z,13.60
2018-09-21T17:17:31.695Z,13.20
2018-09-21T17:20:00.730Z,12.90
2018-09-21T17:22:29.758Z,12.60
2018-09-21T17:24:58.744Z,12.50
2018-09-21T17:27:27.911Z,12.90
2018-09-21T17:29:56.936Z,12.90
2018-09-21T17:32:26.057Z,12.50
2018-09-21T17:34:55.087Z,12.20
2018-09-21T17:37:24.167Z,12.20
2018-09-21T17:39:53.251Z,12.40
2018-09-21T17:42:22.287Z,12.00
2018-09-21T17:44:51.700Z,11.80
2018-09-21T17:47:20.753Z,11.90
2018-09-21T17:49:49.922Z,11.90
2018-09-21T17:52:18.960Z,11.90
2018-09-21T17:54:47.991Z,11.90
2018-09-21T17:57:17.012Z,11.90
2018-09-21T17:59:46.019Z,11.90
2018-09-21T18:02:15.043Z,12.00
2018-09-21T18:04:44.103Z,11.90
2018-09-21T18:07:18.322Z,12.00
2018-09-21T18:09:48.187Z,12.20
2018-09-21T18:12:17.287Z,12.20
2018-09-21T18:14:46.295Z,12.20
2018-09-21T18:17:15.459Z,12.30
2018-09-21T18:19:44.479Z,12.10
2018-09-21T18:22:13.511Z,12.00
2018-09-21T18:24:42.526Z,12.00
2018-09-21T18:27:11.591Z,12.00
2018-09-21T18:29:40.694Z,12.00
2018-09-21T18:32:09.720Z,11.90
2018-09-21T18:34:38.734Z,12.00
2018-09-21T18:37:07.759Z,12.00
2018-09-21T18:39:36.881Z,11.90
2018-09-21T18:42:05.855Z,11.90
2018-09-21T18:44:34.986Z,11.80
2018-09-21T18:47:03.987Z,12.00
2018-09-21T18:49:33.087Z,12.00
2018-09-21T18:52:02.099Z,12.00
2018-09-21T18:54:31.119Z,11.90
2018-09-21T18:57:00.111Z,11.70
2018-09-21T18:59:29.132Z,11.60
2018-09-21T19:01:58.156Z,11.80
2018-09-21T19:04:27.235Z,11.80
2018-09-21T19:06:56.226Z,11.60
2018-09-21T19:09:25.258Z,11.60
2018-09-21T19:11:54.269Z,11.50
2018-09-21T19:14:23.303Z,11.50
2018-09-21T19:16:52.295Z,11.50
2018-09-21T19:19:21.332Z,11.40
2018-09-21T19:21:50.322Z,11.30
2018-09-21T19:24:19.338Z,11.40
2018-09-21T19:26:48.369Z,11.40
2018-09-21T19:29:17.387Z,11.50
2018-09-21T19:31:46.412Z,11.40
2018-09-21T19:34:15.510Z,11.20
2018-09-21T19:36:44.511Z,11.30
2018-09-21T19:39:13.535Z,11.40
2018-09-21T19:41:42.540Z,11.50
2018-09-21T19:44:11.757Z,11.70
2018-09-21T19:46:40.811Z,11.80
2018-09-21T19:49:09.831Z,12.00
2018-09-21T19:51:39.022Z,12.00
2018-09-21T19:54:08.119Z,11.90
2018-09-21T19:56:37.177Z,11.90
2018-09-21T19:59:06.397Z,11.80
2018-09-21T20:01:35.430Z,11.80
2018-09-21T20:04:04.518Z,12.00
2018-09-21T20:06:33.533Z,12.00
2018-09-21T20:09:02.596Z,11.80
2018-09-21T20:11:31.599Z,11.80
2018-09-21T20:14:00.642Z,11.80
2018-09-21T20:16:29.665Z,11.80
2018-09-21T20:18:58.697Z,12.00
2018-09-21T20:21:27.691Z,11.90
2018-09-21T20:23:56.730Z,11.80
2018-09-21T20:26:25.758Z,12.00
2018-09-21T20:28:54.834Z,11.80
2018-09-21T20:31:29.230Z,11.80
2018-09-21T20:33:58.282Z,11.80
2018-09-21T20:36:27.274Z,11.90
2018-09-21T20:38:56.327Z,11.90
2018-09-21T20:41:25.341Z,11.90
2018-09-21T20:43:54.591Z,12.00
2018-09-21T20:46:24.048Z,12.00
2018-09-21T20:48:53.126Z,12.00
2018-09-21T20:51:22.219Z,12.10
2018-09-21T20:53:51.227Z,12.00
2018-09-21T20:56:20.379Z,12.10
2018-09-21T20:58:49.472Z,12.00
2018-09-21T21:01:18.520Z,12.10
2018-09-21T21:03:47.583Z,12.00
2018-09-21T21:06:16.707Z,12.10
2018-09-21T21:08:45.751Z,12.10
2018-09-21T21:11:14.794Z,12.00
2018-09-21T21:13:43.846Z,12.00
2018-09-21T21:16:12.923Z,12.00
2018-09-21T21:18:42.000Z,11.90
2018-09-21T21:21:11.056Z,12.00
2018-09-21T21:23:40.063Z,11.90
2018-09-21T21:26:09.128Z,11.90
2018-09-21T21:28:38.173Z,11.80
2018-09-21T21:31:07.267Z,11.80
2018-09-21T21:33:36.260Z,11.90
2018-09-21T21:36:05.680Z,11.90
2018-09-21T21:38:35.012Z,12.20
2018-09-21T21:41:04.115Z,12.00
2018-09-21T21:43:33.115Z,12.00
2018-09-21T21:46:02.175Z,12.00
2018-09-21T21:48:31.204Z,12.00
2018-09-21T21:51:00.295Z,11.90
2018-09-21T21:53:29.457Z,12.10
2018-09-21T21:55:58.532Z,12.10
2018-09-21T21:58:27.527Z,12.20
2018-09-21T22:01:01.799Z,12.30
2018-09-21T22:03:30.819Z,12.10
2018-09-21T22:05:59.887Z,12.10
2018-09-21T22:08:28.906Z,12.10
2018-09-21T22:10:57.995Z,12.10
2018-09-21T22:13:32.368Z,12.00
2018-09-21T22:16:01.402Z,12.00
2018-09-21T22:18:30.402Z,11.70
2018-09-21T22:20:59.442Z,11.60
2018-09-21T22:23:28.449Z,11.50
2018-09-21T22:25:57.492Z,11.50
2018-09-21T22:28:26.503Z,11.30
2018-09-21T22:30:55.559Z,11.50
2018-09-21T22:33:24.568Z,11.60
2018-09-21T22:35:53.670Z,11.60
2018-09-21T22:38:22.646Z,11.70
2018-09-21T22:40:51.707Z,11.80
2018-09-21T22:43:20.722Z,11.70
2018-09-21T22:45:49.791Z,11.70
2018-09-21T22:48:18.814Z,11.60
2018-09-21T22:50:47.811Z,11.70
2018-09-21T22:53:16.930Z,11.80
2018-09-21T22:55:45.934Z,11.70
2018-09-21T22:58:14.975Z,11.70
2018-09-21T23:00:44.842Z,11.70
2018-09-21T23:03:13.907Z,11.70
2018-09-21T23:05:42.973Z,11.50
2018-09-21T23:08:12.075Z,11.50
2018-09-21T23:10:41.099Z,11.40
2018-09-21T23:13:10.158Z,11.40
2018-09-21T23:15:39.187Z,11.40
2018-09-21T23:18:08.311Z,11.30
2018-09-21T23:20:37.386Z,11.40
2018-09-21T23:23:06.426Z,11.20
2018-09-21T23:25:35.436Z,11.30
2018-09-21T23:28:04.479Z,11.40
2018-09-21T23:30:33.478Z,11.30
2018-09-21T23:33:02.515Z,11.20
2018-09-21T23:35:31.544Z,11.30
2018-09-21T23:38:00.589Z,11.30
2018-09-21T23:40:29.613Z,11.50
2018-09-21T23:42:58.653Z,11.30
2018-09-21T23:45:27.703Z,11.10
2018-09-21T23:47:56.734Z,11.00
2018-09-21T23:50:25.763Z,11.00
2018-09-21T23:52:54.795Z,11.10
2018-09-21T23:55:23.863Z,11.10
2018-09-21T23:57:52.891Z,11.20
